createdAt,value
2019-06-26T00:01:29.001Z,13.37
2019-06-26T00:04:00.928Z,16.03
2019-06-26T00:06:31.905Z,12.37
2019-06-26T00:09:02.878Z,12.30
2019-06-26T00:11:34.077Z,12.67
2019-06-26T00:14:04.843Z,13.70
2019-06-26T00:16:35.799Z,9.73
2019-06-26T00:19:06.692Z,12.17
2019-06-26T00:21:37.497Z,12.80
2019-06-26T00:24:08.373Z,12.30
2019-06-26T00:26:39.413Z,12.17
2019-06-26T00:29:10.252Z,12.87
2019-06-26T00:31:41.098Z,12.40
2019-06-26T00:34:11.958Z,11.60
2019-06-26T00:36:42.880Z,13.90
2019-06-26T00:39:13.733Z,11.93
2019-06-26T00:41:44.550Z,11.20
2019-06-26T00:44:15.387Z,13.83
2019-06-26T00:46:46.341Z,13.57
2019-06-26T00:49:17.060Z,12.20
2019-06-26T00:51:47.781Z,12.60
2019-06-26T00:54:18.386Z,11.83
2019-06-26T00:56:49.706Z,15.97
2019-06-26T00:59:20.568Z,13.17
2019-06-26T01:02:09.041Z,10.73
2019-06-26T01:04:42.292Z,10.67
2019-06-26T01:07:13.098Z,10.07
2019-06-26T01:09:43.858Z,12.50
2019-06-26T01:12:14.624Z,10.40
2019-06-26T01:14:45.253Z,10.80
2019-06-26T01:17:16.642Z,10.43
2019-06-26T01:19:47.484Z,12.30
2019-06-26T01:22:18.090Z,10.37
2019-06-26T01:24:48.714Z,11.83
2019-06-26T01:27:19.455Z,12.00
2019-06-26T01:29:50.245Z,13.77
2019-06-26T01:32:21.480Z,11.23
2019-06-26T01:34:52.200Z,10.73
2019-06-26T01:37:22.990Z,13.53
2019-06-26T01:39:53.687Z,11.10
2019-06-26T01:42:24.541Z,12.07
2019-06-26T01:44:55.300Z,12.93
2019-06-26T01:47:27.291Z,13.27
2019-06-26T01:49:58.158Z,13.20
2019-06-26T01:52:28.978Z,13.13
2019-06-26T01:54:59.800Z,13.47
2019-06-26T01:57:30.508Z,14.03
2019-06-26T02:00:01.310Z,14.17
2019-06-26T02:02:32.197Z,14.43
2019-06-26T02:05:02.838Z,16.47
2019-06-26T02:07:33.745Z,13.33
2019-06-26T02:10:05.147Z,15.77
2019-06-26T02:12:35.848Z,15.33
2019-06-26T02:15:07.048Z,15.07
2019-06-26T02:17:38.032Z,15.03
2019-06-26T02:20:09.976Z,15.20
2019-06-26T02:22:40.764Z,15.90
2019-06-26T02:25:11.652Z,16.27
2019-06-26T02:27:42.407Z,15.60
2019-06-26T02:30:13.340Z,17.00
2019-06-26T02:32:44.048Z,16.87
2019-06-26T02:35:14.898Z,16.37
2019-06-26T02:37:45.550Z,16.77
2019-06-26T02:40:16.872Z,17.40
2019-06-26T02:42:47.706Z,16.97
2019-06-26T02:45:18.869Z,16.27
2019-06-26T02:47:50.561Z,19.47
2019-06-26T02:50:21.566Z,18.53
2019-06-26T02:52:52.527Z,18.73
2019-06-26T02:55:23.391Z,17.07
2019-06-26T02:57:55.311Z,19.20
2019-06-26T03:00:25.910Z,18.57
2019-06-26T03:02:56.660Z,18.20
2019-06-26T03:05:27.509Z,19.80
2019-06-26T03:07:58.335Z,19.23
2019-06-26T03:10:28.936Z,18.13
2019-06-26T03:12:59.612Z,20.13
2019-06-26T03:15:30.385Z,19.13
2019-06-26T03:18:01.003Z,18.27
2019-06-26T03:20:34.880Z,18.40
2019-06-26T03:23:05.713Z,19.50
2019-06-26T03:25:36.567Z,18.27
2019-06-26T03:28:07.409Z,19.93
2019-06-26T03:30:38.137Z,21.57
2019-06-26T03:33:08.968Z,21.67
2019-06-26T03:35:40.841Z,20.00
2019-06-26T03:38:11.833Z,21.67
2019-06-26T03:40:42.455Z,21.93
2019-06-26T03:43:13.242Z,22.77
2019-06-26T03:45:44.051Z,23.50
2019-06-26T03:48:15.103Z,22.57
2019-06-26T03:50:45.949Z,24.60
2019-06-26T03:53:16.795Z,24.53
2019-06-26T03:55:47.588Z,31.80
2019-06-26T03:58:18.395Z,28.23
2019-06-26T04:00:49.253Z,23.63
2019-06-26T04:03:19.987Z,27.47
2019-06-26T04:05:51.721Z,28.33
2019-06-26T04:08:22.339Z,26.30
2019-06-26T04:10:53.047Z,28.00
2019-06-26T04:13:23.946Z,27.90
2019-06-26T04:15:54.505Z,31.50
2019-06-26T04:18:25.218Z,30.77
2019-06-26T04:20:55.991Z,31.67
2019-06-26T04:23:27.410Z,34.40
2019-06-26T04:25:58.391Z,34.93
2019-06-26T04:28:29.111Z,38.77
2019-06-26T04:30:59.974Z,33.80
2019-06-26T04:33:30.844Z,36.47
2019-06-26T04:36:02.686Z,37.87
2019-06-26T04:38:33.254Z,36.67
2019-06-26T04:41:04.015Z,38.30
2019-06-26T04:43:34.782Z,38.77
2019-06-26T04:46:05.554Z,39.53
2019-06-26T04:48:36.766Z,41.43
2019-06-26T04:51:07.519Z,43.17
2019-06-26T04:53:39.311Z,45.73
2019-06-26T04:56:10.186Z,43.87
2019-06-26T04:58:40.941Z,47.73
2019-06-26T05:01:11.769Z,49.37
2019-06-26T05:03:42.568Z,52.00
2019-06-26T05:06:13.283Z,49.97
2019-06-26T05:08:44.191Z,53.10
2019-06-26T05:11:14.939Z,51.77
2019-06-26T05:13:45.783Z,58.43
2019-06-26T05:16:20.111Z,59.70
2019-06-26T05:18:48.859Z,59.07
2019-06-26T05:21:19.544Z,58.97
2019-06-26T05:23:50.327Z,57.37
2019-06-26T05:26:21.250Z,54.77
2019-06-26T05:28:51.898Z,58.20
2019-06-26T05:31:22.594Z,58.27
2019-06-26T05:33:53.379Z,68.73
2019-06-26T05:36:25.455Z,65.17
2019-06-26T05:38:56.419Z,58.30
2019-06-26T05:41:28.874Z,62.70
2019-06-26T05:43:59.747Z,65.07
2019-06-26T05:46:31.698Z,68.43
2019-06-26T05:49:02.851Z,66.33
2019-06-26T05:51:33.491Z,66.17
2019-06-26T05:54:04.197Z,64.23
2019-06-26T05:56:35.063Z,62.80
2019-06-26T05:59:05.841Z,68.80
2019-06-26T06:01:36.711Z,61.60
2019-06-26T06:04:08.711Z,63.13
2019-06-26T06:06:42.014Z,66.87
2019-06-26T06:09:11.721Z,61.47
2019-06-26T06:11:43.940Z,60.60
2019-06-26T06:14:14.876Z,59.13
2019-06-26T06:16:47.726Z,59.97
2019-06-26T06:19:18.228Z,55.80
2019-06-26T06:21:48.923Z,57.47
2019-06-26T06:24:19.659Z,56.77
2019-06-26T06:26:50.396Z,57.23
2019-06-26T06:29:21.242Z,59.30
2019-06-26T06:31:52.071Z,66.03
2019-06-26T06:34:22.849Z,59.47
2019-06-26T06:36:53.666Z,60.00
2019-06-26T06:39:24.469Z,55.50
2019-06-26T06:41:55.467Z,58.03
2019-06-26T06:44:26.375Z,57.23
2019-06-26T06:47:04.044Z,55.67
2019-06-26T06:49:31.569Z,63.77
2019-06-26T06:52:02.188Z,58.33
2019-06-26T06:54:33.095Z,56.47
2019-06-26T06:57:07.780Z,54.23
2019-06-26T06:59:38.484Z,51.47
2019-06-26T07:02:09.275Z,54.43
2019-06-26T07:04:39.989Z,58.03
2019-06-26T07:07:10.728Z,54.40
2019-06-26T07:09:41.451Z,49.93
2019-06-26T07:12:12.136Z,50.47
2019-06-26T07:14:42.907Z,51.80
2019-06-26T07:17:20.804Z,57.10
2019-06-26T07:19:46.218Z,49.47
2019-06-26T07:22:16.860Z,49.63
2019-06-26T07:24:47.615Z,53.97
2019-06-26T07:27:18.309Z,51.30
2019-06-26T07:29:49.027Z,55.23
2019-06-26T07:32:19.721Z,53.47
2019-06-26T07:34:50.596Z,57.17
2019-06-26T07:37:21.283Z,51.87
2019-06-26T07:39:52.156Z,46.97
2019-06-26T07:42:22.791Z,54.07
2019-06-26T07:44:53.407Z,47.90
2019-06-26T07:47:41.554Z,59.57
2019-06-26T07:49:56.860Z,56.53
2019-06-26T07:52:27.673Z,58.33
2019-06-26T07:54:58.322Z,46.10
2019-06-26T07:57:28.944Z,49.40
2019-06-26T07:59:59.798Z,56.23
2019-06-26T08:02:30.836Z,54.30
2019-06-26T08:05:01.592Z,49.73
2019-06-26T08:07:32.366Z,50.03
2019-06-26T08:10:03.106Z,54.47
2019-06-26T08:12:34.485Z,55.03
2019-06-26T08:15:05.504Z,42.93
2019-06-26T08:17:36.375Z,50.40
2019-06-26T08:20:07.122Z,51.03
2019-06-26T08:22:37.923Z,54.57
2019-06-26T08:25:09.012Z,49.80
2019-06-26T08:27:39.904Z,52.20
2019-06-26T08:30:10.960Z,55.30
2019-06-26T08:32:41.729Z,58.00
2019-06-26T08:35:12.430Z,52.90
2019-06-26T08:37:43.357Z,53.07
2019-06-26T08:40:15.722Z,55.43
2019-06-26T08:42:46.507Z,58.87
2019-06-26T08:45:17.421Z,60.13
2019-06-26T08:47:48.184Z,61.17
2019-06-26T08:50:19.726Z,59.17
2019-06-26T08:52:50.470Z,55.53
2019-06-26T08:55:21.033Z,60.97
2019-06-26T08:57:51.783Z,49.27
2019-06-26T09:00:22.662Z,57.03
2019-06-26T09:02:53.473Z,59.23
2019-06-26T09:05:24.165Z,57.07
2019-06-26T09:07:55.081Z,65.50
2019-06-26T09:10:25.715Z,63.90
2019-06-26T09:13:08.711Z,62.43
2019-06-26T09:15:39.441Z,64.27
2019-06-26T09:18:10.095Z,55.10
2019-06-26T09:20:41.254Z,55.37
2019-06-26T09:23:11.813Z,57.53
2019-06-26T09:25:42.418Z,57.47
2019-06-26T09:28:13.007Z,56.70
2019-06-26T09:30:43.564Z,67.87
2019-06-26T09:33:14.259Z,59.90
2019-06-26T09:35:45.528Z,51.83
2019-06-26T09:38:16.266Z,56.50
2019-06-26T09:40:46.916Z,64.33
2019-06-26T09:43:17.971Z,54.17
2019-06-26T09:45:48.781Z,44.53
2019-06-26T09:48:19.484Z,52.93
2019-06-26T09:50:52.287Z,50.90
2019-06-26T09:53:22.991Z,50.93
2019-06-26T09:55:53.779Z,52.40
2019-06-26T09:58:26.240Z,54.37
2019-06-26T10:00:57.101Z,53.87
2019-06-26T10:03:27.915Z,52.00
2019-06-26T10:05:58.670Z,48.30
2019-06-26T10:08:29.459Z,52.90
2019-06-26T10:11:00.083Z,51.17
2019-06-26T10:13:30.826Z,50.70
2019-06-26T10:16:03.500Z,40.13
2019-06-26T10:18:34.301Z,44.63
2019-06-26T10:21:04.968Z,42.87
2019-06-26T10:23:35.603Z,51.80
2019-06-26T10:26:06.435Z,51.70
2019-06-26T10:28:37.113Z,40.30
2019-06-26T10:31:07.962Z,54.30
2019-06-26T10:33:38.986Z,49.20
2019-06-26T10:36:10.080Z,51.03
2019-06-26T10:38:40.793Z,46.63
2019-06-26T10:41:11.577Z,50.37
2019-06-26T10:43:42.411Z,45.87
2019-06-26T10:46:13.111Z,49.53
2019-06-26T10:48:43.970Z,43.53
2019-06-26T10:51:15.480Z,46.00
2019-06-26T10:53:46.323Z,42.30
2019-06-26T10:56:17.054Z,52.23
2019-06-26T10:58:48.295Z,56.47
2019-06-26T11:01:19.304Z,58.63
2019-06-26T11:03:53.087Z,53.17
2019-06-26T11:06:23.979Z,50.63
2019-06-26T11:08:54.855Z,47.37
2019-06-26T11:11:25.878Z,54.23
2019-06-26T11:13:56.666Z,44.97
2019-06-26T11:16:27.584Z,40.90
2019-06-26T11:18:58.322Z,47.03
2019-06-26T11:21:29.082Z,41.33
2019-06-26T11:23:59.842Z,43.83
2019-06-26T11:26:30.784Z,44.27
2019-06-26T11:29:01.483Z,47.27
2019-06-26T11:31:32.262Z,32.23
2019-06-26T11:34:03.067Z,36.80
2019-06-26T11:36:35.210Z,36.70
2019-06-26T11:39:08.215Z,39.90
2019-06-26T11:41:39.172Z,42.87
2019-06-26T11:44:09.936Z,28.70
2019-06-26T11:46:40.879Z,28.57
2019-06-26T11:49:12.726Z,30.37
2019-06-26T11:51:43.742Z,38.40
2019-06-26T11:54:14.400Z,36.63
2019-06-26T11:56:45.252Z,34.90
2019-06-26T11:59:16.354Z,30.73
2019-06-26T12:01:47.347Z,29.00
2019-06-26T12:04:18.075Z,27.13
2019-06-26T12:06:50.257Z,25.60
2019-06-26T12:09:21.084Z,30.03
2019-06-26T12:11:51.934Z,27.23
2019-06-26T12:14:22.805Z,22.83
2019-06-26T12:16:53.619Z,32.00
2019-06-26T12:19:24.422Z,28.57
2019-06-26T12:21:55.183Z,27.03
2019-06-26T12:24:26.680Z,26.60
2019-06-26T12:26:57.631Z,26.17
2019-06-26T12:29:28.464Z,23.53
2019-06-26T12:31:59.171Z,20.03
2019-06-26T12:34:30.000Z,23.85
2019-06-26T12:37:01.058Z,19.13
2019-06-26T12:39:31.693Z,23.13
2019-06-26T12:42:02.457Z,20.37
2019-06-26T12:44:33.438Z,27.48
2019-06-26T12:47:04.415Z,23.70
2019-06-26T12:49:35.284Z,20.35
2019-06-26T12:52:05.972Z,16.95
2019-06-26T12:54:36.813Z,21.42
2019-06-26T12:57:07.772Z,22.05
2019-06-26T12:59:55.882Z,21.12
2019-06-26T13:02:12.520Z,22.77
2019-06-26T13:04:44.910Z,17.35
2019-06-26T13:07:16.348Z,20.68
2019-06-26T13:09:47.112Z,20.23
2019-06-26T13:12:17.913Z,16.40
2019-06-26T13:14:48.634Z,18.60
2019-06-26T13:17:19.289Z,15.98
2019-06-26T13:19:49.860Z,11.93
2019-06-26T13:22:20.694Z,10.55
2019-06-26T13:24:51.434Z,13.20
2019-06-26T13:27:22.421Z,12.53
2019-06-26T13:29:53.060Z,15.35
2019-06-26T13:32:24.026Z,14.43
2019-06-26T13:34:55.091Z,12.37
2019-06-26T13:37:25.856Z,11.25
2019-06-26T13:39:56.643Z,9.55
2019-06-26T13:42:28.500Z,11.00
2019-06-26T13:44:59.477Z,8.75
2019-06-26T13:47:30.266Z,8.25
2019-06-26T13:50:00.915Z,8.95
2019-06-26T13:52:32.690Z,9.20
2019-06-26T13:55:03.667Z,8.55
2019-06-26T13:57:34.474Z,7.97
2019-06-26T14:00:08.007Z,11.45
2019-06-26T14:02:38.972Z,8.98
2019-06-26T14:05:10.314Z,11.63
2019-06-26T14:07:42.267Z,8.78
2019-06-26T14:10:13.190Z,9.35
2019-06-26T14:12:44.223Z,8.90
2019-06-26T14:15:15.810Z,7.25
2019-06-26T14:17:46.673Z,8.63
2019-06-26T14:20:17.687Z,6.92
2019-06-26T14:22:48.362Z,8.73
2019-06-26T14:25:19.086Z,7.33
2019-06-26T14:27:49.917Z,10.93
2019-06-26T14:30:21.145Z,12.18
2019-06-26T14:32:53.015Z,6.07
2019-06-26T14:35:23.869Z,11.18
2019-06-26T14:37:54.513Z,8.73
2019-06-26T14:40:26.487Z,10.55
2019-06-26T14:42:57.268Z,8.80
2019-06-26T14:45:28.105Z,8.23
2019-06-26T14:47:59.114Z,8.93
2019-06-26T14:50:29.887Z,8.63
2019-06-26T14:53:03.545Z,7.78
2019-06-26T14:55:34.328Z,8.83
2019-06-26T14:58:05.121Z,9.28
2019-06-26T15:00:36.809Z,9.73
2019-06-26T15:03:07.565Z,8.23
2019-06-26T15:05:38.402Z,11.22
2019-06-26T15:08:09.411Z,11.08
2019-06-26T15:10:40.118Z,7.03
2019-06-26T15:13:11.800Z,8.88
2019-06-26T15:15:42.501Z,7.42
2019-06-26T15:18:13.330Z,10.18
2019-06-26T15:20:46.003Z,8.73
2019-06-26T15:23:16.646Z,7.30
2019-06-26T15:25:49.112Z,8.60
2019-06-26T15:28:19.797Z,8.73
2019-06-26T15:33:20.212Z,9.55
2019-06-26T15:35:51.070Z,8.88
2019-06-26T15:38:21.786Z,9.38
2019-06-26T15:40:52.644Z,11.35
2019-06-26T15:43:23.445Z,8.20
2019-06-26T15:45:54.071Z,9.05
2019-06-26T15:48:24.919Z,8.85
2019-06-26T15:50:56.028Z,8.60
2019-06-26T15:53:28.107Z,11.40
2019-06-26T15:55:59.006Z,13.20
2019-06-26T15:58:30.009Z,9.88
2019-06-26T16:01:00.962Z,8.93
2019-06-26T16:03:31.703Z,9.20
2019-06-26T16:06:02.604Z,9.15
2019-06-26T16:08:33.378Z,10.08
2019-06-26T16:11:04.201Z,8.88
2019-06-26T16:13:34.913Z,10.20
2019-06-26T16:16:06.677Z,11.67
2019-06-26T16:18:51.421Z,9.13
2019-06-26T16:21:22.247Z,8.77
2019-06-26T16:23:53.014Z,7.75
2019-06-26T16:26:24.912Z,9.78
2019-06-26T16:28:55.758Z,7.93
2019-06-26T16:31:26.651Z,7.15
2019-06-26T16:33:57.318Z,8.05
2019-06-26T16:36:28.103Z,11.10
2019-06-26T16:38:58.721Z,8.37
2019-06-26T16:41:29.646Z,7.10
2019-06-26T16:44:00.670Z,7.23
2019-06-26T16:46:33.300Z,7.73
2019-06-26T16:49:04.084Z,6.37
2019-06-26T16:51:34.990Z,8.70
2019-06-26T16:54:06.251Z,7.30
2019-06-26T16:56:36.925Z,7.00
2019-06-26T16:59:07.695Z,6.13
2019-06-26T17:01:39.187Z,7.10
2019-06-26T17:04:09.815Z,6.83
2019-06-26T17:06:40.494Z,8.10
2019-06-26T17:09:11.154Z,7.83
2019-06-26T17:11:42.039Z,7.73
2019-06-26T17:14:12.820Z,10.60
2019-06-26T17:16:43.804Z,10.68
2019-06-26T17:19:14.496Z,9.30
2019-06-26T17:21:45.632Z,6.63
2019-06-26T17:24:17.359Z,7.93
2019-06-26T17:26:48.299Z,16.87
2019-06-26T17:29:18.996Z,7.30
2019-06-26T17:31:49.749Z,8.33
2019-06-26T17:34:21.692Z,7.15
2019-06-26T17:36:52.341Z,6.85
2019-06-26T17:39:23.359Z,6.87
2019-06-26T17:41:54.082Z,6.20
2019-06-26T17:44:24.918Z,6.00
2019-06-26T17:46:55.757Z,5.87
2019-06-26T17:49:26.371Z,5.00
2019-06-26T17:51:57.167Z,4.63
2019-06-26T17:54:28.456Z,5.03
2019-06-26T17:56:59.093Z,3.62
2019-06-26T17:59:29.973Z,4.20
2019-06-26T18:02:01.032Z,5.07
2019-06-26T18:04:31.824Z,5.87
2019-06-26T18:07:02.500Z,4.53
2019-06-26T18:09:33.318Z,4.63
2019-06-26T18:12:04.137Z,4.03
2019-06-26T18:14:34.972Z,6.23
2019-06-26T18:17:21.130Z,5.93
2019-06-26T18:19:38.368Z,37.87
2019-06-26T18:22:09.164Z,266.70
2019-06-26T18:24:39.887Z,372.07
2019-06-26T18:27:10.524Z,200.30
2019-06-26T18:29:41.307Z,57.60
2019-06-26T18:32:12.184Z,27.93
2019-06-26T18:34:43.020Z,4.60
2019-06-26T18:37:13.649Z,2.33
2019-06-26T18:39:44.492Z,2.42
2019-06-26T18:42:15.204Z,5.35
2019-06-26T18:44:47.153Z,4.58
2019-06-26T18:47:19.037Z,2.93
2019-06-26T18:49:51.574Z,2.13
2019-06-26T18:52:22.289Z,2.17
2019-06-26T18:54:54.393Z,2.87
2019-06-26T18:57:25.261Z,2.87
2019-06-26T18:59:56.102Z,3.23
2019-06-26T19:02:27.159Z,2.23
2019-06-26T19:04:58.043Z,2.60
2019-06-26T19:07:28.918Z,2.50
2019-06-26T19:09:59.763Z,3.63
2019-06-26T19:12:30.596Z,3.40
2019-06-26T19:15:01.605Z,4.42
2019-06-26T19:17:32.446Z,2.22
2019-06-26T19:20:03.531Z,6.87
2019-06-26T19:22:34.728Z,4.37
2019-06-26T19:25:06.089Z,3.42
2019-06-26T19:27:36.742Z,3.87
2019-06-26T19:30:09.361Z,3.92
2019-06-26T19:32:40.193Z,2.87
2019-06-26T19:35:19.254Z,3.52
2019-06-26T19:37:43.506Z,5.10
2019-06-26T19:40:14.826Z,3.17
2019-06-26T19:42:45.534Z,3.47
2019-06-26T19:45:16.797Z,3.57
2019-06-26T19:47:47.588Z,2.73
2019-06-26T19:50:18.653Z,2.47
2019-06-26T19:52:49.622Z,4.87
2019-06-26T19:55:21.762Z,3.20
2019-06-26T19:57:52.647Z,6.63
2019-06-26T20:00:23.448Z,4.13
2019-06-26T20:02:54.306Z,7.00
2019-06-26T20:05:25.162Z,5.03
2019-06-26T20:07:56.008Z,8.80
2019-06-26T20:10:27.847Z,3.80
2019-06-26T20:12:58.785Z,3.60
2019-06-26T20:15:29.995Z,5.13
2019-06-26T20:18:04.135Z,7.17
2019-06-26T20:20:33.301Z,5.53
2019-06-26T20:23:05.271Z,5.97
2019-06-26T20:25:36.067Z,7.67
2019-06-26T20:28:06.638Z,5.57
2019-06-26T20:30:37.266Z,6.60
2019-06-26T20:33:08.602Z,5.83
2019-06-26T20:35:39.557Z,6.97
2019-06-26T20:38:10.332Z,8.75
2019-06-26T20:40:41.016Z,4.92
2019-06-26T20:43:11.974Z,6.97
2019-06-26T20:45:43.052Z,4.50
2019-06-26T20:48:13.770Z,4.23
2019-06-26T20:50:44.572Z,5.28
2019-06-26T20:53:15.306Z,4.30
2019-06-26T20:55:46.512Z,7.13
2019-06-26T20:58:17.472Z,4.50
2019-06-26T21:00:48.684Z,13.60
2019-06-26T21:03:21.311Z,4.60
2019-06-26T21:05:52.993Z,6.75
2019-06-26T21:08:23.683Z,7.33
2019-06-26T21:10:54.577Z,5.40
2019-06-26T21:13:25.478Z,6.33
2019-06-26T21:15:57.197Z,5.33
2019-06-26T21:18:28.073Z,5.97
2019-06-26T21:20:58.786Z,6.80
2019-06-26T21:23:29.597Z,5.97
2019-06-26T21:26:00.404Z,6.47
2019-06-26T21:28:32.136Z,8.50
2019-06-26T21:31:03.889Z,7.60
2019-06-26T21:33:34.571Z,4.42
2019-06-26T21:36:07.356Z,6.65
2019-06-26T21:38:38.156Z,5.07
2019-06-26T21:41:09.010Z,8.80
2019-06-26T21:43:41.066Z,8.83
2019-06-26T21:46:11.940Z,5.58
2019-06-26T21:48:42.918Z,4.85
2019-06-26T21:51:13.672Z,6.33
2019-06-26T21:53:44.670Z,6.75
2019-06-26T21:56:34.228Z,7.03
2019-06-26T21:59:23.279Z,4.53
2019-06-26T22:02:12.015Z,7.22
2019-06-26T22:04:56.599Z,7.80
2019-06-26T22:07:29.197Z,7.62
2019-06-26T22:10:08.165Z,8.43
2019-06-26T22:12:40.384Z,3.93
2019-06-26T22:15:11.784Z,10.15
2019-06-26T22:17:42.575Z,6.22
2019-06-26T22:20:15.005Z,7.60
2019-06-26T22:22:45.766Z,7.73
2019-06-26T22:25:17.273Z,7.57
2019-06-26T22:27:48.246Z,10.30
2019-06-26T22:30:19.187Z,6.80
2019-06-26T22:32:49.989Z,7.30
2019-06-26T22:35:21.085Z,7.90
2019-06-26T22:37:51.862Z,9.28
2019-06-26T22:40:22.668Z,7.33
2019-06-26T22:42:53.439Z,6.45
2019-06-26T22:45:26.446Z,11.43
2019-06-26T22:47:57.270Z,8.15
2019-06-26T22:50:28.161Z,6.15
2019-06-26T22:52:59.920Z,9.40
2019-06-26T22:55:30.723Z,5.47
2019-06-26T22:58:01.710Z,6.95
2019-06-26T23:00:32.613Z,8.18
2019-06-26T23:03:03.655Z,6.03
2019-06-26T23:05:34.457Z,6.50
2019-06-26T23:08:05.174Z,6.63
2019-06-26T23:10:35.875Z,7.08
2019-06-26T23:13:09.653Z,7.03
2019-06-26T23:15:39.463Z,6.22
2019-06-26T23:18:10.135Z,5.67
2019-06-26T23:20:41.483Z,7.72
2019-06-26T23:23:12.263Z,6.25
2019-06-26T23:25:43.178Z,7.42
2019-06-26T23:28:14.067Z,8.15
2019-06-26T23:30:46.025Z,6.78
2019-06-26T23:33:16.792Z,5.83
2019-06-26T23:35:47.442Z,5.57
2019-06-26T23:38:18.192Z,7.53
2019-06-26T23:40:48.876Z,6.53
2019-06-26T23:43:19.516Z,6.97
2019-06-26T23:45:50.215Z,7.20
2019-06-26T23:48:21.010Z,4.57
2019-06-26T23:50:51.776Z,7.53
2019-06-26T23:53:22.584Z,6.00
2019-06-26T23:55:53.331Z,7.83
2019-06-26T23:58:24.373Z,8.07
